CheckWX is a tool to help pilots better visualize weather data.  It is not intended as a substitute for an official pre-flight weather briefing.

12:43:04 UTC

LGKC TAF
Kithira Airport
Kithira Island, Greece
TAF LGKC 040500Z 0406/0415 05022G32KT 9999 FEW016 BKN018 PROB30 TEMPO 0406/0415 5000 SHRA SCT010 FEW018TCU BKN018

Apr-4@
06:00 UTC

Apr-4 @ 06:00 UTC

Apr-4@
15:00 UTC

Apr-4 @ 15:00 UTC

TAF LGKC 040500Z 0406/0415 05022G32KT 9999 FEW016 BKN018
Wind
  • 050° at 22 KTS
  • {Gusting to 32 KTS
Cloud Levels
  • Few at 1,600' AGL
  • Broken at 1,800' AGL

Apr-4@
06:00 UTC

Apr-4 @ 06:00 UTC

Apr-4@
15:00 UTC

Apr-4 @ 15:00 UTC

PROB30 TEMPO 0406/0415 5000 SHRA SCT010 FEW018TCU BKN018

Temporary - 30% Likelihood

Temporary - 30% Likelihood during this time.

Conditions
Showers, Rain
Cloud Levels
  • Scattered at 1,000' AGL
  • Few at 1,800' AGL
  • Broken at 1,800' AGL